Time;durP1;ratioP1;P1;durP2;ratioP2;P2;SDS_P1;SDS_P2;PMS_P1;PMS_P2;Temp;Humidity;BMP_temperature;BMP_pressure;BME280_temperature;BME280_humidity;BME280_pressure;Samples;Min_cycle;Max_cycle;Signal;HPM_P1;HPM_P2
2022/09/06 00:00:57;;;;;;;8.23;7.38;;;18.80;87.50;;;;;;5051452;28;20056;-47
2022/09/06 00:03:26;;;;;;;8.15;7.35;;;18.70;88.20;;;;;;5052336;28;20059;-48
2022/09/06 00:05:51;;;;;;;11.13;7.82;;;18.70;87.70;;;;;;5052599;28;20025;-46
2022/09/06 00:08:17;;;;;;;8.88;7.22;;;18.70;87.50;;;;;;5052559;28;20041;-45
2022/09/06 00:10:42;;;;;;;9.68;7.95;;;18.70;87.90;;;;;;5052387;28;20534;-46
2022/09/06 00:13:09;;;;;;;8.80;7.60;;;18.60;87.70;;;;;;5043978;28;20059;-47
2022/09/06 00:15:36;;;;;;;8.80;7.90;;;18.60;88.00;;;;;;5045546;28;20510;-46
2022/09/06 00:18:04;;;;;;;8.55;7.63;;;18.60;88.00;;;;;;5052531;28;20075;-46
2022/09/06 00:20:31;;;;;;;9.10;8.20;;;18.60;87.90;;;;;;5052110;28;20037;-47
2022/09/06 00:23:04;;;;;;;8.40;7.50;;;18.60;88.40;;;;;;5051543;28;20049;-47
2022/09/06 00:25:30;;;;;;;8.80;7.90;;;18.50;88.80;;;;;;5052205;28;20071;-46
2022/09/06 00:27:58;;;;;;;11.45;8.02;;;18.60;88.10;;;;;;5051871;28;20029;-49
2022/09/06 00:30:25;;;;;;;8.52;7.70;;;18.50;88.00;;;;;;5052127;28;20025;-48
2022/09/06 00:32:51;;;;;;;8.65;7.68;;;18.50;87.90;;;;;;5051592;28;20025;-47
2022/09/06 00:35:17;;;;;;;10.52;7.15;;;18.50;87.90;;;;;;5052017;28;20021;-46
2022/09/06 00:37:43;;;;;;;10.20;7.28;;;18.50;87.70;;;;;;5051928;28;20025;-46
2022/09/06 00:40:09;;;;;;;12.68;7.85;;;18.50;87.90;;;;;;5051889;28;20543;-46
2022/09/06 00:42:35;;;;;;;17.50;8.13;;;18.50;87.90;;;;;;5035455;28;20151;-47
2022/09/06 00:45:01;;;;;;;9.95;7.10;;;18.40;87.70;;;;;;5027200;28;20108;-46
2022/09/06 00:47:27;;;;;;;7.78;6.78;;;18.40;87.70;;;;;;5031671;28;20148;-46
2022/09/06 00:49:57;;;;;;;7.75;6.97;;;18.40;87.60;;;;;;5031195;28;20044;-46
2022/09/06 00:52:24;;;;;;;7.32;6.63;;;18.30;88.50;;;;;;5041157;28;20029;-47
2022/09/06 00:54:50;;;;;;;11.02;8.13;;;18.30;88.20;;;;;;5052102;28;20114;-46
2022/09/06 00:57:16;;;;;;;9.35;7.35;;;18.30;88.50;;;;;;5051281;28;20505;-47
2022/09/06 00:59:44;;;;;;;8.43;7.07;;;18.20;88.40;;;;;;5051524;28;20437;-45
2022/09/06 01:02:10;;;;;;;8.25;7.45;;;18.30;88.60;;;;;;5050221;28;20025;-46
2022/09/06 01:04:39;;;;;;;7.75;6.72;;;18.20;88.40;;;;;;5050997;28;20017;-46
2022/09/06 01:07:25;;;;;;;8.38;7.50;;;18.20;88.40;;;;;;5051238;28;20028;-47
2022/09/06 01:10:28;;;;;;;10.27;7.38;;;18.20;88.60;;;;;;5051096;28;20090;-45
2022/09/06 01:13:19;;;;;;;8.95;7.60;;;18.20;88.70;;;;;;5050678;28;20025;-47
2022/09/06 01:16:06;;;;;;;10.35;8.30;;;18.20;88.60;;;;;;5051567;28;20103;-45
2022/09/06 01:19:17;;;;;;;9.93;7.13;;;18.20;88.60;;;;;;5051243;28;20025;-45
2022/09/06 01:22:10;;;;;;;16.00;7.60;;;18.20;88.30;;;;;;5033703;28;20398;-47
2022/09/06 01:24:46;;;;;;;8.25;6.93;;;18.20;88.50;;;;;;5011005;28;20391;-45
2022/09/06 01:27:27;;;;;;;8.23;7.25;;;18.20;88.00;;;;;;5011128;28;20578;-46
2022/09/06 01:30:00;;;;;;;;;;;18.10;88.10;;;;;;5011856;28;20128;-46
2022/09/06 01:32:49;;;;;;;8.23;6.72;;;18.10;88.30;;;;;;5010846;28;19932;-45
2022/09/06 01:35:25;;;;;;;7.95;7.15;;;18.10;88.10;;;;;;5011307;28;20030;-46
2022/09/06 01:37:51;;;;;;;9.57;7.32;;;18.00;88.10;;;;;;5011369;28;20026;-46
2022/09/06 01:40:16;;;;;;;10.10;7.10;;;18.00;88.10;;;;;;5010827;28;20040;-45
2022/09/06 01:42:44;;;;;;;11.07;6.97;;;18.00;88.00;;;;;;5023664;28;20562;-46
2022/09/06 01:45:14;;;;;;;12.90;6.90;;;18.00;87.90;;;;;;5041555;28;20021;-47
2022/09/06 01:48:05;;;;;;;7.97;7.07;;;18.00;87.90;;;;;;5050748;28;20025;-46
2022/09/06 01:50:44;;;;;;;9.52;6.80;;;18.00;88.10;;;;;;5050659;28;20067;-46
2022/09/06 01:53:19;;;;;;;8.77;7.20;;;18.00;87.90;;;;;;5050367;28;20044;-45
2022/09/06 01:56:29;;;;;;;7.90;6.65;;;18.00;87.50;;;;;;5051097;28;20021;-45
2022/09/06 01:59:15;;;;;;;7.95;6.75;;;18.00;87.50;;;;;;5015422;28;20655;-45
2022/09/06 02:01:50;;;;;;;7.40;6.50;;;18.00;87.40;;;;;;5024332;28;20068;-46
2022/09/06 02:04:40;;;;;;;7.47;6.68;;;17.90;87.40;;;;;;5030107;28;20041;-45
2022/09/06 02:07:25;;;;;;;6.93;6.22;;;17.90;87.20;;;;;;5030500;28;20045;-46
2022/09/06 02:10:13;;;;;;;11.63;6.75;;;17.90;87.10;;;;;;5030379;28;20021;-46
2022/09/06 02:12:42;;;;;;;7.43;6.43;;;17.90;86.60;;;;;;5034870;28;20033;-45
2022/09/06 02:15:08;;;;;;;8.80;6.30;;;17.90;86.50;;;;;;5041821;28;20032;-48
2022/09/06 02:17:39;;;;;;;10.75;6.20;;;17.90;86.10;;;;;;5050088;28;20025;-46
2022/09/06 02:20:22;;;;;;;9.38;6.55;;;17.90;85.90;;;;;;5049910;28;20095;-46
2022/09/06 02:22:49;;;;;;;8.68;6.18;;;17.90;85.50;;;;;;5049268;28;20052;-46
2022/09/06 02:25:28;;;;;;;8.38;6.78;;;17.90;85.50;;;;;;5050158;28;20029;-48
2022/09/06 02:27:54;;;;;;;9.45;6.18;;;17.90;85.20;;;;;;5048429;28;20029;-46
2022/09/06 02:30:20;;;;;;;10.23;5.88;;;17.80;85.20;;;;;;5049916;28;20487;-46
2022/09/06 02:32:54;;;;;;;7.78;6.07;;;17.80;84.80;;;;;;5049524;28;20082;-46
2022/09/06 02:35:19;;;;;;;19.52;6.68;;;17.80;85.00;;;;;;5050026;28;20029;-45
2022/09/06 02:37:45;;;;;;;8.50;6.05;;;17.80;84.80;;;;;;5049920;28;20024;-46
2022/09/06 02:40:11;;;;;;;10.45;5.38;;;17.80;84.80;;;;;;5049731;28;20028;-46
2022/09/06 02:42:38;;;;;;;5.68;5.13;;;17.80;84.40;;;;;;5044827;28;20108;-48
2022/09/06 02:45:04;;;;;;;9.95;6.00;;;17.80;84.20;;;;;;5040085;28;20432;-47
2022/09/06 02:47:29;;;;;;;7.85;6.10;;;17.80;84.30;;;;;;5049907;28;20116;-45
2022/09/06 02:49:55;;;;;;;7.80;5.45;;;17.80;84.10;;;;;;5038226;28;20021;-49
2022/09/06 02:52:20;;;;;;;8.25;5.60;;;17.80;83.70;;;;;;5049019;28;20099;-46
2022/09/06 02:54:46;;;;;;;6.43;5.82;;;17.80;83.50;;;;;;5049647;28;20028;-46
2022/09/06 02:57:11;;;;;;;5.93;5.32;;;17.70;83.30;;;;;;5049458;28;20033;-47
2022/09/06 02:59:37;;;;;;;5.80;5.05;;;17.80;83.40;;;;;;5049763;28;20577;-46
2022/09/06 03:02:02;;;;;;;6.97;4.97;;;17.70;83.00;;;;;;5049792;28;20638;-45
2022/09/06 03:04:28;;;;;;;7.82;5.43;;;17.70;83.00;;;;;;5049413;28;20029;-46
2022/09/06 03:06:55;;;;;;;5.68;5.07;;;17.60;83.30;;;;;;5049839;28;20370;-46
2022/09/06 03:09:20;;;;;;;8.80;5.15;;;17.60;83.40;;;;;;5049598;28;20105;-46
2022/09/06 03:11:46;;;;;;;5.38;4.72;;;17.50;83.10;;;;;;5049796;28;20120;-45
2022/09/06 03:14:11;;;;;;;6.47;5.00;;;17.60;83.60;;;;;;5048900;28;20111;-45
2022/09/06 03:16:37;;;;;;;6.90;4.97;;;17.60;82.60;;;;;;5049643;28;20029;-46
2022/09/06 03:19:03;;;;;;;8.82;5.32;;;17.50;82.60;;;;;;5046196;28;20064;-45
2022/09/06 03:21:28;;;;;;;7.85;5.50;;;17.50;83.00;;;;;;5041736;28;20626;-45
2022/09/06 03:23:54;;;;;;;7.38;4.88;;;17.50;82.70;;;;;;5047772;28;20055;-46
2022/09/06 03:26:19;;;;;;;11.43;5.40;;;17.40;82.60;;;;;;5048194;28;20033;-47
2022/09/06 03:28:45;;;;;;;15.88;5.53;;;17.40;83.00;;;;;;5049278;28;20017;-46
2022/09/06 03:31:10;;;;;;;9.75;5.40;;;17.40;83.10;;;;;;5049410;28;20029;-46
2022/09/06 03:33:36;;;;;;;8.98;4.93;;;17.40;82.50;;;;;;5047669;28;20033;-47
2022/09/06 03:36:02;;;;;;;10.20;4.93;;;17.40;82.00;;;;;;5052438;28;20032;-47
2022/09/06 03:38:28;;;;;;;7.22;4.80;;;17.40;82.20;;;;;;5052974;28;20107;-47
2022/09/06 03:40:54;;;;;;;7.75;5.53;;;17.40;82.80;;;;;;5053016;28;20052;-47
2022/09/06 03:43:22;;;;;;;5.93;5.07;;;17.30;82.00;;;;;;5043137;28;20114;-46
2022/09/06 03:45:58;;;;;;;9.40;4.25;;;17.30;82.00;;;;;;5044697;28;20036;-47
2022/09/06 03:48:25;;;;;;;6.82;5.13;;;17.30;81.50;;;;;;5052985;28;20395;-46
2022/09/06 03:50:53;;;;;;;6.25;5.05;;;17.30;81.70;;;;;;5051618;28;20059;-47
2022/09/06 03:53:19;;;;;;;10.35;5.10;;;17.30;82.30;;;;;;5045438;28;20029;-48
2022/09/06 03:55:47;;;;;;;6.53;5.03;;;17.30;81.40;;;;;;5047231;28;20025;-46
2022/09/06 03:58:13;;;;;;;7.78;5.25;;;17.30;81.10;;;;;;5052523;28;20033;-49
2022/09/06 04:00:38;;;;;;;7.00;4.90;;;17.30;81.10;;;;;;5052612;28;20375;-50
2022/09/06 04:03:04;;;;;;;6.97;4.55;;;17.20;81.10;;;;;;5052113;28;20024;-46
2022/09/06 04:05:29;;;;;;;11.00;4.88;;;17.30;81.10;;;;;;5052525;28;20609;-46
2022/09/06 04:07:55;;;;;;;9.13;4.57;;;17.20;81.20;;;;;;5052704;28;20104;-45
2022/09/06 04:10:20;;;;;;;8.60;5.00;;;17.20;81.20;;;;;;5052744;28;20113;-48
2022/09/06 04:12:46;;;;;;;5.68;4.80;;;17.20;81.00;;;;;;5043606;28;20033;-47
2022/09/06 04:15:12;;;;;;;7.43;4.53;;;17.20;80.90;;;;;;5042690;28;20037;-48
2022/09/06 04:17:37;;;;;;;7.80;4.53;;;17.10;80.60;;;;;;5052764;28;20032;-47
2022/09/06 04:20:04;;;;;;;9.52;4.63;;;17.20;80.60;;;;;;5052413;28;20043;-49
2022/09/06 04:22:29;;;;;;;7.93;4.90;;;17.10;80.60;;;;;;5050667;28;20090;-47
2022/09/06 04:24:55;;;;;;;6.07;4.28;;;17.10;80.40;;;;;;5052472;28;20430;-48
2022/09/06 04:27:20;;;;;;;13.35;4.75;;;17.10;80.20;;;;;;5052246;28;20044;-47
2022/09/06 04:29:46;;;;;;;6.25;4.13;;;17.10;80.20;;;;;;5052587;28;20021;-49
2022/09/06 04:32:11;;;;;;;10.25;4.10;;;17.10;80.10;;;;;;5052468;28;20029;-47
2022/09/06 04:34:37;;;;;;;9.00;5.00;;;17.10;80.00;;;;;;5051854;28;20536;-50
2022/09/06 04:37:02;;;;;;;7.70;5.05;;;17.10;79.50;;;;;;5051362;28;20028;-46
2022/09/06 04:39:28;;;;;;;5.90;4.63;;;17.00;79.80;;;;;;5050839;28;20112;-47
2022/09/06 04:41:53;;;;;;;7.20;4.47;;;17.00;80.00;;;;;;5051297;28;20029;-47
2022/09/06 04:44:19;;;;;;;11.88;4.47;;;17.00;80.40;;;;;;5039050;28;20053;-47
2022/09/06 04:46:44;;;;;;;8.20;4.38;;;16.90;79.70;;;;;;5044742;28;20075;-48
2022/09/06 04:49:10;;;;;;;7.30;4.65;;;16.90;80.10;;;;;;5049515;28;20032;-46
2022/09/06 04:51:37;;;;;;;8.63;4.05;;;16.90;79.80;;;;;;5050944;28;20021;-47
2022/09/06 04:54:03;;;;;;;7.75;4.47;;;16.90;79.70;;;;;;5050161;28;20025;-46
2022/09/06 04:56:29;;;;;;;7.50;4.20;;;16.90;79.70;;;;;;5051022;28;20040;-47
2022/09/06 04:58:54;;;;;;;9.80;4.47;;;16.90;79.70;;;;;;5051497;28;20032;-46
2022/09/06 05:01:20;;;;;;;7.55;4.35;;;16.90;79.60;;;;;;5051620;28;20021;-48
2022/09/06 05:03:46;;;;;;;7.85;4.30;;;16.90;79.50;;;;;;5051097;28;20032;-46
2022/09/06 05:06:17;;;;;;;7.63;4.43;;;16.90;79.60;;;;;;5051446;28;20021;-46
2022/09/06 05:08:43;;;;;;;9.50;5.05;;;16.90;79.60;;;;;;5051361;28;20047;-46
2022/09/06 05:11:10;;;;;;;5.88;4.32;;;16.90;79.80;;;;;;5051309;28;20533;-47
2022/09/06 05:13:35;;;;;;;13.30;4.00;;;16.90;79.00;;;;;;5042955;28;20021;-47
2022/09/06 05:16:02;;;;;;;7.72;4.80;;;16.90;78.80;;;;;;5042832;28;20566;-46
2022/09/06 05:18:28;;;;;;;7.35;3.72;;;16.90;78.80;;;;;;5051239;28;20090;-48
2022/09/06 05:20:54;;;;;;;7.97;4.30;;;16.90;78.90;;;;;;5051052;28;20025;-45
2022/09/06 05:23:20;;;;;;;5.28;4.13;;;16.90;78.50;;;;;;5050708;28;20063;-46
2022/09/06 05:25:46;;;;;;;7.65;4.03;;;16.90;78.90;;;;;;5050767;28;20482;-47
2022/09/06 05:28:11;;;;;;;6.25;3.95;;;16.90;79.20;;;;;;5050840;28;20108;-46
2022/09/06 05:30:37;;;;;;;9.60;4.20;;;16.90;78.90;;;;;;5050995;28;20025;-47
2022/09/06 05:33:03;;;;;;;11.25;4.45;;;16.90;78.90;;;;;;5050450;28;20021;-46
2022/09/06 05:35:28;;;;;;;11.63;4.38;;;16.90;78.90;;;;;;5050751;28;20029;-49
2022/09/06 05:37:53;;;;;;;9.90;4.60;;;16.90;78.70;;;;;;5050563;28;20555;-49
2022/09/06 05:40:19;;;;;;;7.65;3.92;;;16.90;78.40;;;;;;5050752;28;20107;-48
2022/09/06 05:42:44;;;;;;;9.93;4.32;;;16.90;78.50;;;;;;5043572;28;20049;-47
2022/09/06 05:45:10;;;;;;;8.40;4.22;;;17.00;78.60;;;;;;5040100;28;20677;-47
2022/09/06 05:47:35;;;;;;;9.95;4.25;;;17.00;78.60;;;;;;5051014;28;20013;-46
2022/09/06 05:50:02;;;;;;;8.82;4.35;;;17.00;78.10;;;;;;5050662;28;20507;-45
2022/09/06 05:52:28;;;;;;;11.40;4.35;;;17.00;77.80;;;;;;5049504;28;20040;-46
2022/09/06 05:54:53;;;;;;;8.82;3.90;;;17.00;78.10;;;;;;5049876;28;20029;-47
2022/09/06 05:57:19;;;;;;;11.45;4.43;;;17.00;78.20;;;;;;5050025;28;20025;-48
2022/09/06 05:59:44;;;;;;;8.50;3.95;;;17.00;78.00;;;;;;5049372;28;20470;-49
2022/09/06 06:02:10;;;;;;;5.90;3.70;;;17.10;77.80;;;;;;5048571;28;20059;-46
2022/09/06 06:04:35;;;;;;;7.30;3.85;;;17.10;78.50;;;;;;5049477;28;20021;-47
2022/09/06 06:07:01;;;;;;;11.52;4.22;;;17.00;77.40;;;;;;5048583;28;20029;-45
2022/09/06 06:09:26;;;;;;;13.77;4.47;;;17.10;77.70;;;;;;5050009;28;20092;-47
2022/09/06 06:11:52;;;;;;;7.68;4.00;;;17.10;77.40;;;;;;5050038;28;20048;-47
2022/09/06 06:14:17;;;;;;;5.63;3.67;;;17.10;77.40;;;;;;5040586;28;20033;-49
2022/09/06 06:16:43;;;;;;;7.07;3.50;;;17.10;77.40;;;;;;5044143;28;20021;-52
2022/09/06 06:19:08;;;;;;;10.20;3.97;;;17.10;77.50;;;;;;5048537;28;20041;-46
2022/09/06 06:21:34;;;;;;;9.65;4.15;;;17.10;77.60;;;;;;5049662;28;20128;-47
2022/09/06 06:24:02;;;;;;;5.78;3.65;;;17.20;77.60;;;;;;5049554;28;20055;-48
2022/09/06 06:26:30;;;;;;;5.80;3.63;;;17.20;77.40;;;;;;5050203;28;20447;-46
2022/09/06 06:28:57;;;;;;;10.05;3.15;;;17.30;77.10;;;;;;5049666;28;20119;-47
2022/09/06 06:31:23;;;;;;;7.90;3.63;;;17.30;77.00;;;;;;5048341;28;20021;-48
2022/09/06 06:33:49;;;;;;;12.40;4.00;;;17.40;77.00;;;;;;5049268;28;20596;-49
2022/09/06 06:36:14;;;;;;;8.07;3.83;;;17.40;76.80;;;;;;5049846;28;20087;-49
2022/09/06 06:38:44;;;;;;;10.05;4.00;;;17.40;76.70;;;;;;5049924;28;20036;-48
2022/09/06 06:41:22;;;;;;;5.95;3.75;;;17.50;76.90;;;;;;5049911;28;20060;-46
2022/09/06 06:43:51;;;;;;;6.88;3.40;;;17.50;76.50;;;;;;5041765;28;20021;-47
2022/09/06 06:46:17;;;;;;;5.45;4.05;;;17.60;76.50;;;;;;5041437;28;20032;-47
2022/09/06 06:48:44;;;;;;;6.13;3.50;;;17.70;77.00;;;;;;5049787;28;20068;-47
2022/09/06 06:51:12;;;;;;;5.78;3.80;;;17.90;75.60;;;;;;5048394;28;20029;-47
2022/09/06 06:53:38;;;;;;;8.52;3.55;;;17.90;75.80;;;;;;5049541;28;20036;-47
2022/09/06 06:56:17;;;;;;;5.80;3.40;;;17.80;75.50;;;;;;5049610;28;20021;-49
2022/09/06 06:58:43;;;;;;;9.63;4.35;;;17.80;75.50;;;;;;5049358;28;20029;-49
2022/09/06 07:01:09;;;;;;;6.43;3.38;;;17.80;75.40;;;;;;5049330;28;20025;-47
2022/09/06 07:03:35;;;;;;;5.55;3.35;;;17.90;75.30;;;;;;5047897;28;20356;-54
2022/09/06 07:06:02;;;;;;;10.70;3.53;;;17.90;75.40;;;;;;5049540;28;20017;-53
2022/09/06 07:08:27;;;;;;;6.20;3.67;;;18.00;75.30;;;;;;5048586;28;20333;-54
2022/09/06 07:10:53;;;;;;;5.57;3.30;;;18.20;74.30;;;;;;5052643;28;20435;-54
2022/09/06 07:13:18;;;;;;;4.82;3.22;;;18.20;75.20;;;;;;5048210;28;20033;-54
2022/09/06 07:15:44;;;;;;;5.28;3.15;;;18.30;74.10;;;;;;5043834;28;20025;-54
2022/09/06 07:18:09;;;;;;;8.57;3.90;;;18.40;74.00;;;;;;5053583;28;20068;-54
2022/09/06 07:20:35;;;;;;;8.27;3.42;;;18.50;74.00;;;;;;5053407;28;20021;-54
2022/09/06 07:23:04;;;;;;;11.50;3.67;;;18.50;74.30;;;;;;5052990;28;20048;-54
2022/09/06 07:25:30;;;;;;;6.75;3.25;;;18.60;74.50;;;;;;5053384;28;20044;-54
2022/09/06 07:28:05;;;;;;;5.47;3.10;;;18.80;73.10;;;;;;5052764;28;20458;-54
2022/09/06 07:30:32;;;;;;;11.85;3.15;;;18.90;73.20;;;;;;5053568;28;20075;-54
2022/09/06 07:32:58;;;;;;;11.43;3.20;;;19.10;72.30;;;;;;5051652;28;20021;-54
2022/09/06 07:35:25;;;;;;;7.50;3.42;;;19.10;72.70;;;;;;5052303;28;20712;-54
2022/09/06 07:37:59;;;;;;;3.42;2.97;;;19.20;72.20;;;;;;5053101;28;20021;-54
2022/09/06 07:40:26;;;;;;;5.88;3.03;;;19.20;72.70;;;;;;5053174;28;20103;-54
2022/09/06 07:42:52;;;;;;;6.32;3.42;;;19.20;72.50;;;;;;5047833;28;20033;-53
2022/09/06 07:45:18;;;;;;;5.22;3.42;;;19.10;72.60;;;;;;5043458;28;20028;-54
2022/09/06 07:47:44;;;;;;;7.57;3.75;;;18.90;72.80;;;;;;5051658;28;20090;-54
2022/09/06 07:50:10;;;;;;;12.35;5.32;;;18.90;73.30;;;;;;5052959;28;20029;-53
2022/09/06 07:52:35;;;;;;;10.02;4.57;;;18.90;72.90;;;;;;5052392;28;20033;-54
2022/09/06 07:55:01;;;;;;;16.17;3.20;;;18.80;73.20;;;;;;5052802;28;20052;-54
2022/09/06 07:57:26;;;;;;;7.22;3.85;;;18.90;73.60;;;;;;5050556;28;20120;-54
2022/09/06 07:59:52;;;;;;;9.10;3.47;;;18.80;73.40;;;;;;5051050;28;20116;-53
2022/09/06 08:02:17;;;;;;;8.27;3.58;;;18.80;73.80;;;;;;5052859;28;20752;-54
2022/09/06 08:04:43;;;;;;;12.32;4.15;;;18.80;73.90;;;;;;5052422;28;20074;-54
2022/09/06 08:07:09;;;;;;;9.35;4.25;;;18.80;74.60;;;;;;5052587;28;20063;-55
2022/09/06 08:09:35;;;;;;;6.93;3.30;;;18.80;74.40;;;;;;5052814;28;20032;-54
2022/09/06 08:12:08;;;;;;;8.00;3.92;;;18.80;73.90;;;;;;5051345;28;20018;-55
2022/09/06 08:14:34;;;;;;;7.78;3.45;;;18.70;74.40;;;;;;5044002;28;20053;-54
2022/09/06 08:17:00;;;;;;;8.10;3.50;;;18.80;74.40;;;;;;5049041;28;20029;-54
2022/09/06 08:19:26;;;;;;;7.95;3.83;;;18.70;74.10;;;;;;5052579;28;20037;-55
2022/09/06 08:21:54;;;;;;;8.50;4.00;;;18.70;74.30;;;;;;5051576;28;20115;-54
2022/09/06 08:24:19;;;;;;;6.32;3.67;;;18.60;74.40;;;;;;5051944;28;20029;-53
2022/09/06 08:26:45;;;;;;;5.35;3.55;;;18.70;75.30;;;;;;5052380;28;20025;-54
2022/09/06 08:29:11;;;;;;;10.13;3.33;;;18.80;74.90;;;;;;5051969;28;20060;-54
2022/09/06 08:31:39;;;;;;;6.55;3.55;;;18.90;74.60;;;;;;5052189;28;20052;-54
2022/09/06 08:34:05;;;;;;;8.15;3.78;;;18.90;74.20;;;;;;5051575;28;20685;-53
2022/09/06 08:36:32;;;;;;;8.73;3.70;;;18.90;74.00;;;;;;5051977;28;20033;-56
2022/09/06 08:38:58;;;;;;;7.82;3.90;;;19.00;74.00;;;;;;5051811;28;20040;-54
2022/09/06 08:41:36;;;;;;;6.20;3.80;;;19.00;74.10;;;;;;5051836;28;20072;-53
2022/09/06 08:44:06;;;;;;;6.07;3.63;;;19.10;73.90;;;;;;5046601;28;20044;-53
2022/09/06 08:46:41;;;;;;;8.95;3.85;;;19.20;74.20;;;;;;5044579;28;20407;-54
2022/09/06 08:49:08;;;;;;;12.63;3.38;;;19.20;73.50;;;;;;5051739;28;20470;-54
2022/09/06 08:51:43;;;;;;;8.95;4.00;;;19.20;73.80;;;;;;5051576;28;20119;-54
2022/09/06 08:54:23;;;;;;;5.97;3.65;;;19.20;74.60;;;;;;5051411;28;20044;-54
2022/09/06 08:57:08;;;;;;;5.40;3.42;;;19.30;73.70;;;;;;5047175;28;20096;-54
2022/09/06 08:59:42;;;;;;;11.98;3.95;;;19.40;73.80;;;;;;5032848;28;20072;-54
2022/09/06 09:02:12;;;;;;;6.25;3.95;;;19.60;73.40;;;;;;5031761;28;20129;-54
2022/09/06 09:04:43;;;;;;;6.03;3.65;;;19.80;73.60;;;;;;5031244;28;20083;-54
2022/09/06 09:07:39;;;;;;;5.72;3.85;;;20.20;73.60;;;;;;5031265;28;20056;-55
2022/09/06 09:10:24;;;;;;;4.40;3.28;;;20.70;72.60;;;;;;5031041;28;20360;-55
2022/09/06 09:12:49;;;;;;;4.55;3.47;;;21.30;69.90;;;;;;5030650;28;20037;-55
2022/09/06 09:15:17;;;;;;;7.88;3.30;;;21.60;67.60;;;;;;5031385;28;20021;-56
2022/09/06 09:17:44;;;;;;;8.85;3.05;;;21.70;68.20;;;;;;5031198;28;20060;-54
2022/09/06 09:20:10;;;;;;;8.48;3.67;;;21.70;68.20;;;;;;5031059;28;20605;-55
2022/09/06 09:22:37;;;;;;;5.20;3.30;;;21.70;67.50;;;;;;5030579;28;20030;-55
2022/09/06 09:25:05;;;;;;;8.57;3.35;;;21.70;67.40;;;;;;5030906;28;20010;-54
2022/09/06 09:27:32;;;;;;;4.20;3.30;;;21.60;67.30;;;;;;5035338;28;20021;-54
2022/09/06 09:30:03;;;;;;;7.68;4.07;;;21.50;67.90;;;;;;5042473;28;20025;-55
2022/09/06 09:32:34;;;;;;;8.05;3.25;;;21.50;68.00;;;;;;5050658;28;20032;-54
2022/09/06 09:35:31;;;;;;;6.28;3.40;;;21.60;67.40;;;;;;5051149;28;20046;-55
2022/09/06 09:38:06;;;;;;;4.25;3.50;;;22.70;66.30;;;;;;5049501;28;20666;-55
2022/09/06 09:40:52;;;;;;;9.60;3.58;;;23.60;63.20;;;;;;5050576;28;20611;-55
2022/09/06 09:43:28;;;;;;;5.07;3.03;;;24.10;61.80;;;;;;5044685;28;20045;-55
2022/09/06 09:46:23;;;;;;;10.30;2.90;;;24.00;61.90;;;;;;5038852;28;20036;-56
2022/09/06 09:49:03;;;;;;;7.47;3.33;;;24.30;61.30;;;;;;5010384;28;20030;-55
2022/09/06 09:51:31;;;;;;;6.55;3.40;;;24.20;60.50;;;;;;5010927;28;20038;-55
2022/09/06 09:53:59;;;;;;;10.98;3.67;;;24.20;60.90;;;;;;5010559;28;20022;-55
2022/09/06 09:56:47;;;;;;;4.72;2.83;;;24.00;61.50;;;;;;5010585;28;20057;-55
2022/09/06 09:59:38;;;;;;;7.80;3.05;;;23.80;62.80;;;;;;5010466;28;20057;-55
2022/09/06 10:02:26;;;;;;;5.40;3.03;;;23.60;61.70;;;;;;5010971;28;20121;-55
2022/09/06 10:05:03;;;;;;;10.05;3.30;;;23.70;61.70;;;;;;5011064;28;20026;-54
2022/09/06 10:07:31;;;;;;;19.35;5.95;;;23.80;62.00;;;;;;5010696;28;20369;-55
2022/09/06 10:09:58;;;;;;;9.95;5.10;;;23.90;61.60;;;;;;5010574;28;20495;-54
2022/09/06 10:12:33;;;;;;;9.80;3.92;;;24.10;61.90;;;;;;5009312;28;20120;-54
2022/09/06 10:14:59;;;;;;;14.52;3.63;;;24.40;61.90;;;;;;5038293;28;20663;-54
2022/09/06 10:17:31;;;;;;;9.60;4.30;;;24.90;59.80;;;;;;5010806;28;20037;-55
2022/09/06 10:20:09;;;;;;;9.88;3.00;;;25.60;59.90;;;;;;5010514;28;20033;-54
2022/09/06 10:23:18;;;;;;;13.55;3.22;;;26.50;57.60;;;;;;5008522;28;20116;-55
2022/09/06 10:25:46;;;;;;;7.70;3.03;;;27.00;56.40;;;;;;5010506;28;20030;-56
2022/09/06 10:28:11;;;;;;;7.30;3.45;;;27.00;56.20;;;;;;5009283;28;20026;-55
2022/09/06 10:30:52;;;;;;;10.40;3.38;;;27.60;55.40;;;;;;5008978;28;20487;-55
2022/09/06 10:33:29;;;;;;;7.82;3.05;;;27.60;54.70;;;;;;5010232;28;20030;-55
2022/09/06 10:35:57;;;;;;;10.90;2.83;;;27.20;55.50;;;;;;5010384;28;20033;-55
2022/09/06 10:38:49;;;;;;;7.60;3.60;;;26.90;55.70;;;;;;5010285;28;20037;-55
2022/09/06 10:41:33;;;;;;;8.30;3.40;;;26.80;55.50;;;;;;5010267;28;20030;-55
2022/09/06 10:44:40;;;;;;;7.32;3.33;;;26.60;56.40;;;;;;5021944;28;20026;-56
2022/09/06 10:47:14;;;;;;;6.50;3.30;;;26.60;56.70;;;;;;5033822;28;20491;-54
2022/09/06 10:49:53;;;;;;;6.38;3.28;;;26.40;57.30;;;;;;5029995;28;20029;-54
2022/09/06 10:52:27;;;;;;;8.43;3.20;;;26.60;56.70;;;;;;5029294;28;20041;-55
2022/09/06 10:55:00;;;;;;;9.13;3.58;;;26.20;57.00;;;;;;5029565;28;20071;-54
2022/09/06 10:57:40;;;;;;;8.68;3.38;;;25.80;58.10;;;;;;5029543;28;20033;-54
2022/09/06 11:00:12;;;;;;;6.43;3.85;;;25.90;59.20;;;;;;5028320;28;20030;-54
2022/09/06 11:02:42;;;;;;;14.52;4.30;;;26.80;59.20;;;;;;5029300;28;20030;-54
2022/09/06 11:05:11;;;;;;;;;;;27.70;56.30;;;;;;5030040;28;20025;-55
2022/09/06 11:07:42;;;;;;;6.00;3.35;;;28.00;55.90;;;;;;5029328;28;19905;-55
2022/09/06 11:10:30;;;;;;;7.15;3.40;;;28.80;54.80;;;;;;5029248;28;20022;-55
2022/09/06 11:13:07;;;;;;;11.60;3.85;;;30.20;52.40;;;;;;5028728;28;20030;-56
2022/09/06 11:15:42;;;;;;;6.28;3.55;;;30.50;51.90;;;;;;5029906;28;20104;-55
2022/09/06 11:18:17;;;;;;;17.13;4.40;;;29.80;52.30;;;;;;5046798;28;20032;-54
2022/09/06 11:21:15;;;;;;;8.98;3.80;;;29.40;53.20;;;;;;5047953;28;20397;-55
2022/09/06 11:23:51;;;;;;;9.35;3.72;;;29.10;53.50;;;;;;5048501;28;20028;-54
2022/09/06 11:26:22;;;;;;;7.78;3.80;;;28.60;55.00;;;;;;5049083;28;20021;-56
2022/09/06 11:28:57;;;;;;;7.38;3.50;;;28.40;54.80;;;;;;5048898;28;20040;-55
2022/09/06 11:31:28;;;;;;;15.15;3.70;;;28.40;55.40;;;;;;5021040;28;20063;-56
2022/09/06 11:34:18;;;;;;;11.90;3.72;;;27.80;55.60;;;;;;5009976;28;20079;-55
2022/09/06 11:36:53;;;;;;;14.05;3.95;;;27.50;56.90;;;;;;5010068;28;20076;-55
2022/09/06 11:39:31;;;;;;;14.02;3.83;;;27.20;57.40;;;;;;5009765;28;20108;-55
2022/09/06 11:41:58;;;;;;;10.23;3.90;;;27.00;57.20;;;;;;5009692;28;20025;-55
2022/09/06 11:44:48;;;;;;;7.82;4.00;;;27.10;57.00;;;;;;5022157;28;20025;-55
2022/09/06 11:47:46;;;;;;;13.98;4.18;;;26.70;56.80;;;;;;5040950;28;20055;-55
2022/09/06 11:50:24;;;;;;;9.70;4.45;;;26.80;57.70;;;;;;5049311;28;20437;-55
2022/09/06 11:53:05;;;;;;;11.57;4.68;;;26.80;57.80;;;;;;5048637;28;20025;-55
2022/09/06 11:55:43;;;;;;;9.85;3.85;;;26.80;58.40;;;;;;5049249;28;20441;-54
2022/09/06 11:58:28;;;;;;;9.20;4.32;;;26.60;58.20;;;;;;5052660;28;20359;-54
2022/09/06 12:01:12;;;;;;;7.68;3.90;;;26.50;58.80;;;;;;5052607;28;20025;-54
2022/09/06 12:03:49;;;;;;;11.38;4.20;;;26.30;59.40;;;;;;5051001;28;20104;-54
2022/09/06 12:06:19;;;;;;;9.43;4.25;;;26.20;59.50;;;;;;5052561;28;20111;-54
2022/09/06 12:08:46;;;;;;;9.52;4.05;;;26.00;59.70;;;;;;5052669;28;20017;-54
2022/09/06 12:11:21;;;;;;;8.80;3.50;;;26.20;59.80;;;;;;5052263;28;20393;-54
2022/09/06 12:13:55;;;;;;;8.77;4.05;;;26.10;60.20;;;;;;5045710;28;20028;-54
2022/09/06 12:16:21;;;;;;;7.35;3.90;;;26.20;59.30;;;;;;5043556;28;20017;-54
2022/09/06 12:18:46;;;;;;;12.93;4.05;;;26.40;59.80;;;;;;5052251;28;20624;-54
2022/09/06 12:21:41;;;;;;;10.60;4.28;;;26.20;59.50;;;;;;5052187;28;20029;-54
2022/09/06 12:24:28;;;;;;;17.45;4.68;;;26.00;60.30;;;;;;5051999;28;20017;-56
2022/09/06 12:27:18;;;;;;;6.68;3.70;;;26.30;60.00;;;;;;5052174;28;20122;-55
2022/09/06 12:29:50;;;;;;;8.60;3.92;;;26.50;59.20;;;;;;5051871;28;20658;-55
2022/09/06 12:32:22;;;;;;;4.93;3.45;;;26.40;59.00;;;;;;5052073;28;20033;-55
2022/09/06 12:34:49;;;;;;;8.43;4.30;;;26.40;60.60;;;;;;5052217;28;20023;-55
2022/09/06 12:37:28;;;;;;;9.00;4.28;;;26.40;59.60;;;;;;5052017;28;20120;-55
2022/09/06 12:39:58;;;;;;;9.70;4.00;;;26.30;60.10;;;;;;5051906;28;20505;-55
2022/09/06 12:42:25;;;;;;;6.95;4.05;;;26.20;60.20;;;;;;5051440;28;20078;-55
2022/09/06 12:44:52;;;;;;;11.50;4.10;;;26.30;60.10;;;;;;5043148;28;20032;-55
2022/09/06 12:47:31;;;;;;;14.48;4.60;;;26.50;60.20;;;;;;5043523;28;20060;-55
2022/09/06 12:50:22;;;;;;;6.25;3.80;;;26.80;60.00;;;;;;5051904;28;20032;-56
2022/09/06 12:53:00;;;;;;;9.88;4.40;;;27.20;59.80;;;;;;5051383;28;20024;-55
2022/09/06 12:55:37;;;;;;;10.23;4.95;;;27.80;58.00;;;;;;5051540;28;20021;-55
2022/09/06 12:58:07;;;;;;;6.22;4.07;;;28.40;58.00;;;;;;5051468;28;20025;-55
2022/09/06 13:00:51;;;;;;;7.53;4.53;;;28.50;57.30;;;;;;5051295;28;20386;-55
2022/09/06 13:03:30;;;;;;;6.50;3.80;;;28.70;56.60;;;;;;5051068;28;20082;-56
2022/09/06 13:05:58;;;;;;;8.85;4.68;;;28.90;56.20;;;;;;5051461;28;20126;-56